Flight Track Log - Related Links

Times and Time Zones

All times are in EDT time to prevent confusion due to time zone crossing. See the KAL61 flight status page for this flight to view local times or setup timezone preferences in your user account.

Time Position Orientation Groundspeed Altitude Reporting Facility
EDT Latitude Longitude Course Direction KTS MPH feet Rate Location/Type
Mon 08:55:00 AM 37.4473 127.1487 79° East  Level FlightAware Approximate
Mon 08:56:00 AM 37.4771 127.3292 78° East  Level FlightAware Approximate
Mon 08:57:00 AM 37.5055 127.5102 79° East  Level FlightAware Approximate
Mon 08:58:00 AM 37.5238 127.6924 78° East  Level FlightAware Approximate
Mon 08:59:00 AM 37.5537 127.8731 79° East  Level FlightAware Approximate
Mon 09:00:00 AM 37.5824 128.0542 79° East  Level FlightAware Approximate
Mon 09:01:00 AM 37.6115 128.2352 78° East  Level FlightAware Approximate
Mon 09:02:00 AM 37.6431 128.4156 76° East  Level FlightAware Approximate
Mon 09:03:00 AM 37.6667 128.5978 90° East  Level FlightAware Approximate
Mon 09:04:00 AM 37.6833 128.7667 142° Southeast  Level FlightAware Approximate
Mon 09:05:00 AM 37.6054 128.9212 119° Southeast  Level FlightAware Approximate
Mon 09:06:00 AM 37.5305 129.0798 121° Southeast  Level FlightAware Approximate
Mon 09:07:00 AM 37.4551 129.2379 121° Southeast  Level FlightAware Approximate
Mon 09:08:00 AM 37.3838 129.3988 118° Southeast  Level FlightAware Approximate
Mon 09:09:00 AM 37.3069 129.5555 122° Southeast  Level FlightAware Approximate
Mon 09:10:00 AM 37.2297 129.7117 122° Southeast  Level FlightAware Approximate
Mon 09:11:00 AM 37.1523 129.8677 122° Southeast  Level FlightAware Approximate
Mon 09:12:00 AM 37.0747 130.0233 122° Southeast  Level FlightAware Approximate
Mon 09:13:00 AM 36.9969 130.1786 122° Southeast  Level FlightAware Approximate
Mon 09:14:00 AM 36.9189 130.3336 122° Southeast  Level FlightAware Approximate
Mon 09:15:00 AM 36.8407 130.4883 122° Southeast  Level FlightAware Approximate
Mon 09:16:00 AM 36.7622 130.6426 122° Southeast  Level FlightAware Approximate
Mon 09:17:00 AM 36.6840 130.7969 122° Southeast  Level FlightAware Approximate
Mon 09:18:00 AM 36.6057 130.9510 122° Southeast  Level FlightAware Approximate
Mon 09:19:00 AM 36.5271 131.1048 122° Southeast  Level FlightAware Approximate
Mon 09:20:00 AM 36.4483 131.2582 123° Southeast  Level FlightAware Approximate
Mon 09:21:00 AM 36.3694 131.4114 123° Southeast  Level FlightAware Approximate
Mon 09:22:00 AM 36.3612 131.5920 92° East  Level FlightAware Approximate
Mon 09:23:00 AM 36.3553 131.7736 92° East  Level FlightAware Approximate
Mon 09:24:00 AM 36.3491 131.9552 92° East  Level FlightAware Approximate
Mon 09:25:00 AM 36.3427 132.1367 92° East  Level FlightAware Approximate
Mon 09:26:00 AM 36.3359 132.3182 93° East  Level FlightAware Approximate
Mon 09:27:00 AM 36.3289 132.4997 93° East  Level FlightAware Approximate
Mon 09:28:00 AM 36.3216 132.6812 93° East  Level FlightAware Approximate
Mon 09:29:00 AM 36.3141 132.8626 93° East  Level FlightAware Approximate
Mon 09:30:00 AM 36.3062 133.0439 93° East  Level FlightAware Approximate
Mon 09:31:00 AM 36.2981 133.2253 93° East  Level FlightAware Approximate
Mon 09:32:00 AM 36.2897 133.4066 93° East  Level FlightAware Approximate
Mon 09:33:00 AM 36.2811 133.5878 93° East  Level FlightAware Approximate
Mon 09:34:00 AM 36.2721 133.7691 93° East  Level FlightAware Approximate
Mon 09:35:00 AM 36.2630 133.9503 94° East  Level FlightAware Approximate
Mon 09:36:00 AM 36.2535 134.1314 94° East  Level FlightAware Approximate
Mon 09:37:00 AM 36.2437 134.3125 94° East  Level FlightAware Approximate
Mon 09:38:00 AM 36.2337 134.4935 94° East  Level FlightAware Approximate
Mon 09:39:00 AM 36.2227 134.6745 94° East  Level FlightAware Approximate
Mon 09:40:00 AM 36.2114 134.8553 94° East  Level FlightAware Approximate
Mon 09:41:00 AM 36.2000 135.0362 90° East  Level FlightAware Approximate
Mon 09:42:00 AM 36.1999 135.2175 95° East  Level FlightAware Approximate
Mon 09:43:00 AM 36.1879 135.3983 95° East  Level FlightAware Approximate
Mon 09:44:00 AM 36.1755 135.5790 95° East  Level FlightAware Approximate
Mon 09:45:00 AM 36.1629 135.7596 95° East  Level FlightAware Approximate
Mon 09:46:00 AM 36.1500 135.9402 95° East  Level FlightAware Approximate
Mon 09:47:00 AM 36.1368 136.1207 95° East  Level FlightAware Approximate
Mon 09:48:00 AM 36.1233 136.3011 95° East  Level FlightAware Approximate
Mon 09:49:00 AM 36.1096 136.4815 95° East  Level FlightAware Approximate
Mon 09:50:00 AM 36.0956 136.6619 95° East  Level FlightAware Approximate
Mon 09:51:00 AM 36.0814 136.8421 96° East  Level FlightAware Approximate
Mon 09:52:00 AM 36.0669 137.0223 96° East  Level FlightAware Approximate
Mon 09:53:00 AM 36.0521 137.2025 96° East  Level FlightAware Approximate
Mon 09:54:00 AM 36.0370 137.3825 96° East  Level FlightAware Approximate
Mon 09:55:00 AM 36.0217 137.5625 96° East  Level FlightAware Approximate
Mon 09:56:00 AM 36.0061 137.7424 96° East  Level FlightAware Approximate
Mon 09:57:00 AM 35.9902 137.9223 96° East  Level FlightAware Approximate
Mon 09:58:00 AM 35.9741 138.1021 96° East  Level FlightAware Approximate
Mon 09:59:00 AM 35.9582 138.2818 96° East  Level FlightAware Approximate
Mon 10:00:00 AM 35.9426 138.4616 96° East  Level FlightAware Approximate
Mon 10:01:00 AM 35.9268 138.6413 96° East  Level FlightAware Approximate
Mon 10:02:00 AM 35.9106 138.8210 96° East  Level FlightAware Approximate
Mon 10:03:00 AM 35.8942 139.0005 96° East  Level FlightAware Approximate
Mon 10:04:00 AM 35.8775 139.1800 96° East  Level FlightAware Approximate
Mon 10:05:00 AM 35.8606 139.3594 97° East  Level FlightAware Approximate
Mon 10:06:00 AM 35.8434 139.5387 97° East  Level FlightAware Approximate
Mon 10:07:00 AM 35.8259 139.7180 97° East  Level FlightAware Approximate
Mon 10:08:00 AM 35.8082 139.8972 97° East  Level FlightAware Approximate
Mon 10:09:00 AM 35.7902 140.0762 97° East  Level FlightAware Approximate
Mon 10:10:00 AM 35.7719 140.2553 97° East  Level FlightAware Approximate
Mon 10:11:00 AM 35.7534 140.4342 97° East  Level FlightAware Approximate
Mon 10:12:00 AM 35.7347 140.6131 97° East  Level FlightAware Approximate
Mon 10:13:00 AM 35.7172 140.7919 85° East  Level FlightAware Approximate
Mon 10:14:00 AM 35.7286 140.9716 85° East  Level FlightAware Approximate
Mon 10:15:00 AM 35.7397 141.1514 86° East  Level FlightAware Approximate
Mon 10:16:00 AM 35.7505 141.3313 86° East  Level FlightAware Approximate
Mon 10:17:00 AM 35.7610 141.5112 86° East  Level FlightAware Approximate
Mon 10:18:00 AM 35.7713 141.6911 86° East  Level FlightAware Approximate
Mon 10:19:00 AM 35.7813 141.8711 86° East  Level FlightAware Approximate
Mon 10:20:00 AM 35.7911 142.0511 86° East  Level FlightAware Approximate
Mon 10:21:00 AM 35.8005 142.2312 86° East  Level FlightAware Approximate
Mon 10:22:00 AM 35.8098 142.4113 86° East  Level FlightAware Approximate
Mon 10:23:00 AM 35.8190 142.5914 86° East  Level FlightAware Approximate
Mon 10:24:00 AM 35.8289 142.7715 86° East  Level FlightAware Approximate
Mon 10:25:00 AM 35.8385 142.9517 86° East  Level FlightAware Approximate
Mon 10:26:00 AM 35.8479 143.1319 86° East  Level FlightAware Approximate
Mon 10:27:00 AM 35.8570 143.3121 86° East  Level FlightAware Approximate
Mon 10:28:00 AM 35.8659 143.4924 86° East  Level FlightAware Approximate
Mon 10:29:00 AM 35.8744 143.6727 87° East  Level FlightAware Approximate
Mon 10:30:00 AM 35.8827 143.8530 87° East  Level FlightAware Approximate
Mon 10:31:00 AM 35.9116 144.0300 78° East  Level FlightAware Approximate
Mon 10:32:00 AM 35.9420 144.2069 78° East  Level FlightAware Approximate
Mon 10:33:00 AM 35.9720 144.3838 78° East  Level FlightAware Approximate
Mon 10:34:00 AM 36.0019 144.5609 78° East  Level FlightAware Approximate
Mon 10:35:00 AM 36.0314 144.7381 78° East  Level FlightAware Approximate
Mon 10:36:00 AM 36.0607 144.9155 78° East  Level FlightAware Approximate
Mon 10:37:00 AM 36.0898 145.0930 79° East  Level FlightAware Approximate
Mon 10:38:00 AM 36.1186 145.2706 79° East  Level FlightAware Approximate
Mon 10:39:00 AM 36.1471 145.4484 79° East  Level FlightAware Approximate
Mon 10:40:00 AM 36.1889 145.6220 73° East  Level FlightAware Approximate
Mon 10:41:00 AM 36.2408 145.7915 68° East  Level FlightAware Approximate
Mon 10:42:00 AM 36.2956 145.9598 68° East  Level FlightAware Approximate
Mon 10:43:00 AM 36.3502 146.1284 68° East  Level FlightAware Approximate
Mon 10:44:00 AM 36.4033 146.2977 74° East  Level FlightAware Approximate
Mon 10:45:00 AM 36.4437 146.4725 74° East  Level FlightAware Approximate
Mon 10:46:00 AM 36.4838 146.6476 74° East  Level FlightAware Approximate
Mon 10:47:00 AM 36.5237 146.8228 74° East  Level FlightAware Approximate
Mon 10:48:00 AM 36.5633 146.9982 74° East  Level FlightAware Approximate
Mon 10:49:00 AM 36.6027 147.1738 74° East  Level FlightAware Approximate
Mon 10:50:00 AM 36.6418 147.3495 74° East  Level FlightAware Approximate
Mon 10:51:00 AM 36.6806 147.5254 75° East  Level FlightAware Approximate
Mon 10:52:00 AM 36.7192 147.7015 75° East  Level FlightAware Approximate
Mon 10:53:00 AM 36.7575 147.8778 75° East  Level FlightAware Approximate
Mon 10:54:00 AM 36.7956 148.0542 75° East  Level FlightAware Approximate
Mon 10:55:00 AM 36.8333 148.2309 75° East  Level FlightAware Approximate
Mon 10:56:00 AM 36.8709 148.4077 75° East  Level FlightAware Approximate
Mon 10:57:00 AM 36.8933 148.5880 84° East  Level FlightAware Approximate
Mon 10:58:00 AM 36.9080 148.7701 84° East  Level FlightAware Approximate
Mon 10:59:00 AM 36.9225 148.9523 84° East  Level FlightAware Approximate
Mon 11:00:00 AM 36.9366 149.1345 84° East  Level FlightAware Approximate
Mon 11:01:00 AM 36.9505 149.3168 85° East  Level FlightAware Approximate
Mon 11:02:00 AM 36.9641 149.4992 85° East  Level FlightAware Approximate
Mon 11:03:00 AM 36.9774 149.6816 85° East  Level FlightAware Approximate
Mon 11:04:00 AM 36.9905 149.8641 85° East  Level FlightAware Approximate
Mon 11:05:00 AM 37.0020 150.0468 87° East  Level FlightAware Approximate
Mon 11:06:00 AM 37.0094 150.2299 87° East  Level FlightAware Approximate
Mon 11:07:00 AM 37.0166 150.4129 87° East  Level FlightAware Approximate
Mon 11:08:00 AM 37.0236 150.5961 87° East  Level FlightAware Approximate
Mon 11:09:00 AM 37.0302 150.7792 87° East  Level FlightAware Approximate
Mon 11:10:00 AM 37.0366 150.9624 87° East  Level FlightAware Approximate
Mon 11:11:00 AM 37.0426 151.1456 88° East  Level FlightAware Approximate
Mon 11:12:00 AM 37.0484 151.3288 88° East  Level FlightAware Approximate
Mon 11:13:00 AM 37.0539 151.5121 88° East  Level FlightAware Approximate
Mon 11:14:00 AM 37.0592 151.6954 88° East  Level FlightAware Approximate
Mon 11:15:00 AM 37.0641 151.8787 88° East  Level FlightAware Approximate
Mon 11:16:00 AM 37.0688 152.0621 88° East  Level FlightAware Approximate
Mon 11:17:00 AM 37.0732 152.2454 88° East  Level FlightAware Approximate
Mon 11:18:00 AM 37.0773 152.4288 88° East  Level FlightAware Approximate
Mon 11:19:00 AM 37.0811 152.6122 88° East  Level FlightAware Approximate
Mon 11:20:00 AM 37.0846 152.7956 89° East  Level FlightAware Approximate
Mon 11:21:00 AM 37.0879 152.9790 89° East  Level FlightAware Approximate
Mon 11:22:00 AM 37.0909 153.1625 89° East  Level FlightAware Approximate
Mon 11:23:00 AM 37.0936 153.3460 89° East  Level FlightAware Approximate
Mon 11:24:00 AM 37.0960 153.5294 89° East  Level FlightAware Approximate
Mon 11:25:00 AM 37.0981 153.7129 89° East  Level FlightAware Approximate
Mon 11:26:00 AM 37.0999 153.8964 89° East  Level FlightAware Approximate
Mon 11:27:00 AM 37.1015 154.0799 89° East  Level FlightAware Approximate
Mon 11:28:00 AM 37.1028 154.2634 89° East  Level FlightAware Approximate
Mon 11:29:00 AM 37.1037 154.4470 90° East  Level FlightAware Approximate
Mon 11:30:00 AM 37.1045 154.6305 90° East  Level FlightAware Approximate
Mon 11:31:00 AM 37.1049 154.8140 90° East  Level FlightAware Approximate
Mon 11:32:00 AM 37.1050 154.9975 90° East  Level FlightAware Approximate
Mon 11:33:00 AM 37.1049 155.1811 90° East  Level FlightAware Approximate
Mon 11:34:00 AM 37.1045 155.3646 90° East  Level FlightAware Approximate
Mon 11:35:00 AM 37.1038 155.5481 90° East  Level FlightAware Approximate
Mon 11:36:00 AM 37.1028 155.7316 90° East  Level FlightAware Approximate
Mon 11:37:00 AM 37.1015 155.9151 90° East  Level FlightAware Approximate
Mon 11:38:00 AM 37.1000 156.0986 91° East  Level FlightAware Approximate
Mon 11:39:00 AM 37.0981 156.2821 91° East  Level FlightAware Approximate
Mon 11:40:00 AM 37.0960 156.4656 91° East  Level FlightAware Approximate
Mon 11:41:00 AM 37.0936 156.6491 91° East  Level FlightAware Approximate
Mon 11:42:00 AM 37.0909 156.8326 91° East  Level FlightAware Approximate
Mon 11:43:00 AM 37.0880 157.0160 91° East  Level FlightAware Approximate
Mon 11:44:00 AM 37.0847 157.1994 91° East  Level FlightAware Approximate
Mon 11:45:00 AM 37.0812 157.3829 91° East  Level FlightAware Approximate
Mon 11:46:00 AM 37.0774 157.5663 91° East  Level FlightAware Approximate
Mon 11:47:00 AM 37.0733 157.7496 92° East  Level FlightAware Approximate
Mon 11:48:00 AM 37.0689 157.9330 92° East  Level FlightAware Approximate
Mon 11:49:00 AM 37.0643 158.1163 92° East  Level FlightAware Approximate
Mon 11:50:00 AM 37.0593 158.2997 92° East  Level FlightAware Approximate
Mon 11:51:00 AM 37.0541 158.4830 92° East  Level FlightAware Approximate
Mon 11:52:00 AM 37.0486 158.6662 92° East  Level FlightAware Approximate
Mon 11:53:00 AM 37.0428 158.8495 92° East  Level FlightAware Approximate
Mon 11:54:00 AM 37.0367 159.0327 92° East  Level FlightAware Approximate
Mon 11:55:00 AM 37.0304 159.2159 92° East  Level FlightAware Approximate
Mon 11:56:00 AM 37.0238 159.3990 93° East  Level FlightAware Approximate
Mon 11:57:00 AM 37.0168 159.5821 93° East  Level FlightAware Approximate
Mon 11:58:00 AM 37.0096 159.7652 93° East  Level FlightAware Approximate
Mon 11:59:00 AM 37.0022 159.9483 93° East  Level FlightAware Approximate
Mon 12:00:00 PM 37.0048 160.1313 87° East  Level FlightAware Approximate
Mon 12:01:00 PM 37.0113 160.3144 87° East  Level FlightAware Approximate
Mon 12:02:00 PM 37.0175 160.4975 88° East  Level FlightAware Approximate
Mon 12:03:00 PM 37.0234 160.6807 88° East  Level FlightAware Approximate
Mon 12:04:00 PM 37.0291 160.8639 88° East  Level FlightAware Approximate
Mon 12:05:00 PM 37.0344 161.0471 88° East  Level FlightAware Approximate
Mon 12:06:00 PM 37.0395 161.2304 88° East  Level FlightAware Approximate
Mon 12:07:00 PM 37.0443 161.4137 88° East  Level FlightAware Approximate
Mon 12:08:00 PM 37.0488 161.5970 88° East  Level FlightAware Approximate
Mon 12:09:00 PM 37.0531 161.7803 88° East  Level FlightAware Approximate
Mon 12:10:00 PM 37.0570 161.9636 88° East  Level FlightAware Approximate
Mon 12:11:00 PM 37.0607 162.1470 89° East  Level FlightAware Approximate
Mon 12:12:00 PM 37.0641 162.3304 89° East  Level FlightAware Approximate
Mon 12:13:00 PM 37.0674 162.5137 88° East  Level FlightAware Approximate
Mon 12:14:00 PM 37.0716 162.6971 88° East  Level FlightAware Approximate
Mon 12:15:00 PM 37.0755 162.8805 88° East  Level FlightAware Approximate
Mon 12:16:00 PM 37.0791 163.0639 89° East  Level FlightAware Approximate
Mon 12:16:00 PM 37.1000 165.0000 90° East 594 684 34,000  Level Oakland Oceanic (ODAPS)
Mon 12:16:30 PM 37.1000 165.1333 90° East 594 684 34,000  Level Oakland Oceanic (ODAPS)
Mon 12:17:00 PM 37.0824 163.2473 89° East  Level FlightAware Approximate
Mon 12:18:00 PM 37.0855 163.4307 89° East  Level FlightAware Approximate
Mon 12:19:00 PM 37.0882 163.6142 89° East  Level FlightAware Approximate
Mon 12:20:00 PM 37.0907 163.7976 89° East  Level FlightAware Approximate
Mon 12:21:00 PM 37.0929 163.9811 89° East  Level FlightAware Approximate
Mon 12:22:00 PM 37.0931 166.4039 91° East 594 684 34,000  Level FlightAware Transoceanic
Mon 12:23:00 PM 37.0906 166.6157 91° East 594 684 34,000  Level FlightAware Transoceanic
Mon 12:24:00 PM 37.0878 166.8274 91° East 594 684 34,000  Level FlightAware Transoceanic
Mon 12:25:00 PM 37.0846 167.0391 91° East 594 684 34,000  Level FlightAware Transoceanic
Mon 12:26:00 PM 37.0810 167.2508 91° East 594 684 34,000  Level FlightAware Transoceanic
Mon 12:26:27 PM 37.0833 167.1833 91° East 583 671 34,000  Level Oakland Oceanic (ODAPS)
Mon 12:27:00 PM 37.0770 167.4624 91° East 594 684 34,000  Level FlightAware Transoceanic
Mon 12:28:00 PM 37.0726 167.6741 92° East 594 684 34,000  Level FlightAware Transoceanic
Mon 12:29:00 PM 37.0679 167.8857 92° East 594 684 34,000  Level FlightAware Transoceanic
Mon 12:30:00 PM 37.0628 168.0973 92° East 594 684 34,000  Level FlightAware Transoceanic
Mon 12:31:00 PM 37.0573 168.3089 92° East 594 684 34,000  Level FlightAware Transoceanic
Mon 12:32:00 PM 37.0558 168.3912 92° East 583 671 34,000  Level FlightAware Transoceanic
Mon 12:33:00 PM 37.0500 168.5924 92° East 583 671 34,000  Level FlightAware Transoceanic
Mon 12:34:00 PM 37.0439 168.7936 92° East 583 671 34,000  Level FlightAware Transoceanic
Mon 12:35:00 PM 37.0374 168.9948 92° East 583 671 34,000  Level FlightAware Transoceanic
Mon 12:36:00 PM 37.0306 169.1959 92° East 583 671 34,000  Level FlightAware Transoceanic
Mon 12:37:00 PM 37.0235 169.3970 93° East 583 671 34,000  Level FlightAware Transoceanic
Mon 12:38:00 PM 37.0160 169.5980 93° East 583 671 34,000  Level FlightAware Transoceanic
Mon 12:39:00 PM 37.0082 169.7990 93° East 583 671 34,000  Level FlightAware Transoceanic
Mon 12:40:00 PM 37.0000 170.0000 73° East 583 671 34,000  Level FlightAware Transoceanic
Mon 12:40:20 PM 37.0000 170.0000 73° East 719 827 34,000  Level Oakland Oceanic (ODAPS)
Mon 12:40:49 PM 37.0000 170.0000 73° East 565 650 34,000  Level Oakland Oceanic (ODAPS)
Mon 12:41:00 PM 37.0454 170.1834 73° East 583 671 34,000  Level FlightAware Transoceanic
Mon 12:42:00 PM 37.0906 170.3670 73° East 583 671 34,000  Level FlightAware Transoceanic
Mon 12:43:00 PM 37.1354 170.5508 73° East 583 671 34,000  Level FlightAware Transoceanic
Mon 12:44:00 PM 37.1800 170.7349 73° East 583 671 34,000  Level FlightAware Transoceanic
Mon 12:45:00 PM 37.2243 170.9192 73° East 583 671 34,000  Level FlightAware Transoceanic
Mon 12:46:00 PM 37.2683 171.1036 73° East 719 827 34,000  Level FlightAware Transoceanic
Mon 12:47:00 PM 37.3178 171.3132 74° East 565 650 34,000  Level FlightAware Transoceanic
Mon 12:48:00 PM 37.3621 171.5017 74° East 565 650 34,000  Level FlightAware Transoceanic
Mon 12:49:00 PM 37.4060 171.6904 74° East 565 650 34,000  Level FlightAware Transoceanic
Mon 12:50:00 PM 37.4496 171.8794 74° East 565 650 34,000  Level FlightAware Transoceanic
Mon 12:51:00 PM 37.4929 172.0685 74° East 565 650 34,000  Level FlightAware Transoceanic
Mon 12:52:00 PM 37.5359 172.2579 74° East 565 650 34,000  Level FlightAware Transoceanic
Mon 12:53:00 PM 37.5787 172.4475 74° East 565 650 34,000  Level FlightAware Transoceanic
Mon 12:54:00 PM 37.6211 172.6373 74° East 565 650 34,000  Level FlightAware Transoceanic
Mon 12:54:14 PM 37.6167 172.6000 74° East 548 631 34,000  Level Oakland Oceanic (ODAPS)
Mon 12:55:00 PM 37.6632 172.8273 74° East 565 650 34,000  Level FlightAware Transoceanic
Mon 12:56:00 PM 37.7050 173.0176 75° East 565 650 34,000  Level FlightAware Transoceanic
Mon 12:57:00 PM 37.7465 173.2081 75° East 565 650 34,000  Level FlightAware Transoceanic
Mon 12:58:00 PM 37.7877 173.3987 75° East 565 650 34,000  Level FlightAware Transoceanic
Mon 12:59:00 PM 37.8285 173.5896 75° East 565 650 34,000  Level FlightAware Transoceanic
Mon 01:00:00 PM 37.8595 173.7195 75° East 548 631 34,000  Level FlightAware Transoceanic
Mon 01:01:00 PM 37.8989 173.9069 75° East 548 631 34,000  Level FlightAware Transoceanic
Mon 01:02:00 PM 37.9380 174.0944 75° East 548 631 34,000  Level FlightAware Transoceanic
Mon 01:03:00 PM 37.9769 174.2821 75° East 548 631 34,000  Level FlightAware Transoceanic
Mon 01:04:00 PM 38.0154 174.4700 75° East 548 631 34,000  Level FlightAware Transoceanic
Mon 01:05:00 PM 38.0536 174.6581 76° East 548 631 34,000  Level FlightAware Transoceanic
Mon 01:06:00 PM 38.0916 174.8463 76° East 548 631 34,000  Level FlightAware Transoceanic
Mon 01:07:00 PM 38.1292 175.0348 76° East 548 631 34,000  Level FlightAware Transoceanic
Mon 01:08:00 PM 38.1666 175.2235 76° East 548 631 34,000  Level FlightAware Transoceanic
Mon 01:08:05 PM 38.1500 175.1333 76° East 526 605 34,000  Level Oakland Oceanic (ODAPS)
Mon 01:09:00 PM 38.2036 175.4124 76° East 548 631 34,000  Level FlightAware Transoceanic
Mon 01:10:00 PM 38.2403 175.6015 76° East 548 631 34,000  Level FlightAware Transoceanic
Mon 01:11:00 PM 38.2768 175.7907 76° East 548 631 34,000  Level FlightAware Transoceanic
Mon 01:12:00 PM 38.3129 175.9801 76° East 548 631 34,000  Level FlightAware Transoceanic
Mon 01:13:00 PM 38.3487 176.1698 77° East 548 631 34,000  Level FlightAware Transoceanic
Mon 01:14:00 PM 38.3562 176.2047 77° East 526 605 34,000  Level FlightAware Transoceanic
Mon 01:15:00 PM 38.3896 176.3838 77° East 526 605 34,000  Level FlightAware Transoceanic
Mon 01:16:00 PM 38.4228 176.5632 77° East 526 605 34,000  Level FlightAware Transoceanic
Mon 01:17:00 PM 38.4557 176.7426 77° East 526 605 34,000  Level FlightAware Transoceanic
Mon 01:18:00 PM 38.4883 176.9223 77° East 526 605 34,000  Level FlightAware Transoceanic
Mon 01:19:00 PM 38.5206 177.1021 77° East 526 605 34,000  Level FlightAware Transoceanic
Mon 01:20:00 PM 38.5526 177.2820 77° East 526 605 34,000  Level FlightAware Transoceanic
Mon 01:21:00 PM 38.5844 177.4621 77° East 526 605 34,000  Level FlightAware Transoceanic
Mon 01:21:56 PM 38.6167 177.6333 78° East 526 605 34,000  Level Oakland Oceanic (ODAPS)
Mon 01:22:00 PM 38.6159 177.6424 77° East 526 605 34,000  Level FlightAware Transoceanic
Mon 01:23:00 PM 38.6471 177.8229 78° East 526 605 34,000  Level FlightAware Transoceanic
Mon 01:24:00 PM 38.6781 178.0034 78° East 526 605 34,000  Level FlightAware Transoceanic
Mon 01:25:00 PM 38.7087 178.1842 78° East 526 605 34,000  Level FlightAware Transoceanic
Mon 01:26:00 PM 38.7391 178.3651 78° East 526 605 34,000  Level FlightAware Transoceanic
Mon 01:27:00 PM 38.7692 178.5462 78° East 526 605 34,000  Level FlightAware Transoceanic
Mon 01:28:00 PM 38.7995 178.7225 78° East 526 605 34,000  Level FlightAware Transoceanic
Mon 01:29:00 PM 38.8290 178.9045 78° East 526 605 34,000  Level FlightAware Transoceanic
Mon 01:30:00 PM 38.8582 179.0867 78° East 526 605 34,000  Level FlightAware Transoceanic
Mon 01:31:00 PM 38.8871 179.2691 79° East 526 605 34,000  Level FlightAware Transoceanic
Mon 01:32:00 PM 38.9158 179.4516 79° East 526 605 34,000  Level FlightAware Transoceanic
Mon 01:33:00 PM 38.9441 179.6343 79° East 526 605 34,000  Level FlightAware Transoceanic
Mon 01:34:00 PM 38.9722 179.8171 79° East 526 605 34,000  Level FlightAware Transoceanic
Mon 01:34:59 PM 39.0000 180.0000 79° East 519 597 34,000  Level Oakland Oceanic (ODAPS)
Mon 01:35:00 PM 39.0000 -180.0000 79° East 526 605 34,000  Level FlightAware Transoceanic
Mon 01:35:50 PM 39.0167 -179.8500 80° East 512 589 34,000  Level Oakland Oceanic (ODAPS)
Mon 01:36:00 PM 39.0257 -179.8211 80° East 526 605 34,000  Level FlightAware Transoceanic
Mon 01:37:00 PM 39.0512 -179.6420 80° East 526 605 34,000  Level FlightAware Transoceanic
Mon 01:38:00 PM 39.0764 -179.4628 80° East 526 605 34,000  Level FlightAware Transoceanic
Mon 01:39:00 PM 39.1014 -179.2835 80° East 526 605 34,000  Level FlightAware Transoceanic
Mon 01:40:00 PM 39.1260 -179.1041 80° East 526 605 34,000  Level FlightAware Transoceanic
Mon 01:41:00 PM 39.1531 -178.9046 80° East 519 597 34,000  Level FlightAware Transoceanic
Mon 01:42:00 PM 39.1667 -178.7707 80° East 512 589 34,000  Level FlightAware Transoceanic
Mon 01:43:00 PM 39.1907 -178.5904 80° East 512 589 34,000  Level FlightAware Transoceanic
Mon 01:44:00 PM 39.2145 -178.4100 80° East 512 589 34,000  Level FlightAware Transoceanic
Mon 01:45:00 PM 39.2379 -178.2294 81° East 512 589 34,000  Level FlightAware Transoceanic
Mon 01:46:00 PM 39.2611 -178.0487 81° East 512 589 34,000  Level FlightAware Transoceanic
Mon 01:47:00 PM 39.2840 -177.8679 81° East 512 589 34,000  Level FlightAware Transoceanic
Mon 01:48:00 PM 39.3067 -177.6870 81° East 512 589 34,000  Level FlightAware Transoceanic
Mon 01:49:00 PM 39.3290 -177.5060 81° East 512 589 34,000  Level FlightAware Transoceanic
Mon 01:49:40 PM 39.3500 -177.3167 81° East 516 594 34,000  Level Oakland Oceanic (ODAPS)
Mon 01:50:00 PM 39.3511 -177.3248 81° East 512 589 34,000  Level FlightAware Transoceanic
Mon 01:51:00 PM 39.3729 -177.1435 81° East 512 589 34,000  Level FlightAware Transoceanic
Mon 01:52:00 PM 39.3944 -176.9621 81° East 512 589 34,000  Level FlightAware Transoceanic
Mon 01:53:00 PM 39.4156 -176.7807 81° East 512 589 34,000  Level FlightAware Transoceanic
Mon 01:54:00 PM 39.4366 -176.5991 82° East 512 589 34,000  Level FlightAware Transoceanic
Mon 01:55:00 PM 39.4589 -176.3870 82° East 516 594 34,000  Level FlightAware Transoceanic
Mon 01:56:00 PM 39.4798 -176.2007 82° East 516 594 34,000  Level FlightAware Transoceanic
Mon 01:57:00 PM 39.5003 -176.0143 82° East 516 594 34,000  Level FlightAware Transoceanic
Mon 01:58:00 PM 39.5206 -175.8278 82° East 516 594 34,000  Level FlightAware Transoceanic
Mon 01:59:00 PM 39.5406 -175.6412 82° East 516 594 34,000  Level FlightAware Transoceanic
Mon 02:00:00 PM 39.5603 -175.4545 82° East 516 594 34,000  Level FlightAware Transoceanic
Mon 02:01:00 PM 39.5797 -175.2676 82° East 516 594 34,000  Level FlightAware Transoceanic
Mon 02:02:00 PM 39.5988 -175.0807 83° East 516 594 34,000  Level FlightAware Transoceanic
Mon 02:03:00 PM 39.6176 -174.8937 83° East 516 594 34,000  Level FlightAware Transoceanic
Mon 02:03:33 PM 39.6333 -174.7500 83° East 517 595 34,000  Level Oakland Oceanic (ODAPS)
Mon 02:04:00 PM 39.6361 -174.7065 83° East 516 594 34,000  Level FlightAware Transoceanic
Mon 02:05:00 PM 39.6543 -174.5193 83° East 516 594 34,000  Level FlightAware Transoceanic
Mon 02:06:00 PM 39.6722 -174.3320 83° East 516 594 34,000  Level FlightAware Transoceanic
Mon 02:07:00 PM 39.6898 -174.1445 83° East 516 594 34,000  Level FlightAware Transoceanic
Mon 02:08:00 PM 39.7071 -173.9570 83° East 516 594 34,000  Level FlightAware Transoceanic
Mon 02:09:00 PM 39.7241 -173.7694 83° East 516 594 34,000  Level FlightAware Transoceanic
Mon 02:10:00 PM 39.7511 -173.4763 84° East 517 595 34,000  Level FlightAware Transoceanic
Mon 02:11:00 PM 39.7668 -173.2940 84° East 517 595 34,000  Level FlightAware Transoceanic
Mon 02:12:00 PM 39.7822 -173.1117 84° East 517 595 34,000  Level FlightAware Transoceanic
Mon 02:13:00 PM 39.7973 -172.9292 84° East 517 595 34,000  Level FlightAware Transoceanic
Mon 02:14:00 PM 39.8121 -172.7466 84° East 517 595 34,000  Level FlightAware Transoceanic
Mon 02:15:00 PM 39.8266 -172.5640 84° East 517 595 34,000  Level FlightAware Transoceanic
Mon 02:16:00 PM 39.8409 -172.3813 84° East 517 595 34,000  Level FlightAware Transoceanic
Mon 02:17:00 PM 39.8549 -172.1986 84° East 517 595 34,000  Level FlightAware Transoceanic
Mon 02:17:34 PM 39.8500 -172.2333 84° East 498 573 34,000  Level Oakland Oceanic (ODAPS)
Mon 02:18:00 PM 39.8685 -172.0157 84° East 517 595 34,000  Level FlightAware Transoceanic
Mon 02:19:00 PM 39.8819 -171.8328 85° East 517 595 34,000  Level FlightAware Transoceanic
Mon 02:20:00 PM 39.8950 -171.6498 85° East 517 595 34,000  Level FlightAware Transoceanic
Mon 02:21:00 PM 39.9078 -171.4668 85° East 517 595 34,000  Level FlightAware Transoceanic
Mon 02:22:00 PM 39.9204 -171.2836 85° East 517 595 34,000  Level FlightAware Transoceanic
Mon 02:23:00 PM 39.9245 -171.2038 85° East 498 573 34,000  Level FlightAware Transoceanic
Mon 02:24:00 PM 39.9361 -171.0320 85° East 498 573 34,000  Level FlightAware Transoceanic
Mon 02:25:00 PM 39.9474 -170.8601 85° East 498 573 34,000  Level FlightAware Transoceanic
Mon 02:26:00 PM 39.9584 -170.6882 85° East 498 573 34,000  Level FlightAware Transoceanic
Mon 02:27:00 PM 39.9692 -170.5162 85° East 498 573 34,000  Level FlightAware Transoceanic
Mon 02:28:00 PM 39.9797 -170.3442 85° East 498 573 34,000  Level FlightAware Transoceanic
Mon 02:29:00 PM 39.9900 -170.1721 86° East 498 573 34,000  Level FlightAware Transoceanic
Mon 02:29:54 PM 40.0000 -170.0000 65° Northeast 495 570 34,000  Level Oakland Oceanic (ODAPS)
Mon 02:30:00 PM 40.0000 -170.0000 65° Northeast 498 573 34,000  Level FlightAware Transoceanic
Mon 02:31:00 PM 40.0588 -169.8356 65° Northeast 498 573 34,000  Level FlightAware Transoceanic
Mon 02:31:18 PM 40.0833 -169.7667 65° Northeast 499 574 34,000  Level Oakland Oceanic (ODAPS)
Mon 02:32:00 PM 40.1174 -169.6708 65° Northeast 498 573 34,000  Level FlightAware Transoceanic
Mon 02:33:00 PM 40.1758 -169.5058 65° Northeast 498 573 34,000  Level FlightAware Transoceanic
Mon 02:34:00 PM 40.2339 -169.3405 65° Northeast 498 573 34,000  Level FlightAware Transoceanic
Mon 02:35:00 PM 40.2918 -169.1749 65° Northeast 498 573 34,000  Level FlightAware Transoceanic
Mon 02:36:00 PM 40.3495 -169.0090 66° East 495 570 34,000  Level FlightAware Transoceanic
Mon 02:37:00 PM 40.4283 -168.7806 66° East 499 574 34,000  Level FlightAware Transoceanic
Mon 02:38:00 PM 40.4850 -168.6153 66° East 499 574 34,000  Level FlightAware Transoceanic
Mon 02:39:00 PM 40.5414 -168.4497 66° East 499 574 34,000  Level FlightAware Transoceanic
Mon 02:40:00 PM 40.5976 -168.2838 66° East 499 574 34,000  Level FlightAware Transoceanic
Mon 02:41:00 PM 40.6536 -168.1176 66° East 499 574 34,000  Level FlightAware Transoceanic
Mon 02:42:00 PM 40.7093 -167.9512 66° East 499 574 34,000  Level FlightAware Transoceanic
Mon 02:43:00 PM 40.7648 -167.7845 66° East 499 574 34,000  Level FlightAware Transoceanic
Mon 02:44:00 PM 40.8201 -167.6175 66° East 499 574 34,000  Level FlightAware Transoceanic
Mon 02:45:00 PM 40.8751 -167.4502 67° East 499 574 34,000  Level FlightAware Transoceanic
Mon 02:45:10 PM 40.8500 -167.5000 66° East 500 575 34,000  Level Oakland Oceanic (ODAPS)
Mon 02:46:00 PM 40.9298 -167.2827 67° East 499 574 34,000  Level FlightAware Transoceanic
Mon 02:47:00 PM 40.9844 -167.1149 67° East 499 574 34,000  Level FlightAware Transoceanic
Mon 02:48:00 PM 41.0387 -166.9467 67° East 499 574 34,000  Level FlightAware Transoceanic
Mon 02:49:00 PM 41.0927 -166.7784 67° East 499 574 34,000  Level FlightAware Transoceanic
Mon 02:50:00 PM 41.1465 -166.6097 67° East 499 574 34,000  Level FlightAware Transoceanic
Mon 02:51:00 PM 41.1788 -166.4841 67° East 500 575 34,000  Level FlightAware Transoceanic
Mon 02:52:00 PM 41.2327 -166.3139 67° East 500 575 34,000  Level FlightAware Transoceanic
Mon 02:53:00 PM 41.2864 -166.1433 67° East 500 575 34,000  Level FlightAware Transoceanic
Mon 02:54:00 PM 41.3398 -165.9724 67° East 500 575 34,000  Level FlightAware Transoceanic
Mon 02:55:00 PM 41.3930 -165.8013 68° East 500 575 34,000  Level FlightAware Transoceanic
Mon 02:56:00 PM 41.4459 -165.6299 68° East 500 575 34,000  Level FlightAware Transoceanic
Mon 02:57:00 PM 41.4986 -165.4582 68° East 500 575 34,000  Level FlightAware Transoceanic
Mon 02:58:00 PM 41.5510 -165.2862 68° East 500 575 34,000  Level FlightAware Transoceanic
Mon 02:59:00 PM 41.6032 -165.1140 68° East 500 575 34,000  Level FlightAware Transoceanic
Mon 02:59:07 PM 41.6000 -165.1333 68° East 508 585 34,000  Level Oakland Oceanic (ODAPS)
Mon 03:00:00 PM 41.6551 -164.9415 68° East 500 575 34,000  Level FlightAware Transoceanic
Mon 03:01:00 PM 41.7067 -164.7686 68° East 500 575 34,000  Level FlightAware Transoceanic
Mon 03:02:00 PM 41.7581 -164.5956 68° East 500 575 34,000  Level FlightAware Transoceanic
Mon 03:03:00 PM 41.8092 -164.4222 68° East 500 575 34,000  Level FlightAware Transoceanic
Mon 03:04:00 PM 41.8601 -164.2486 69° East 500 575 34,000  Level FlightAware Transoceanic
Mon 03:05:00 PM 41.9083 -164.0901 69° East 508 585 34,000  Level FlightAware Transoceanic
Mon 03:06:00 PM 41.9587 -163.9153 69° East 508 585 34,000  Level FlightAware Transoceanic
Mon 03:07:00 PM 42.0089 -163.7402 69° East 508 585 34,000  Level FlightAware Transoceanic
Mon 03:08:00 PM 42.0588 -163.5648 69° East 508 585 34,000  Level FlightAware Transoceanic
Mon 03:09:00 PM 42.1085 -163.3891 69° East 508 585 34,000  Level FlightAware Transoceanic
Mon 03:10:00 PM 42.1579 -163.2132 69° East 508 585 34,000  Level FlightAware Transoceanic
Mon 03:11:00 PM 42.2070 -163.0370 69° East 508 585 34,000  Level FlightAware Transoceanic
Mon 03:12:00 PM 42.2559 -162.8605 70° East 508 585 34,000 526 Level FlightAware Transoceanic
Mon 03:12:54 PM 42.3167 -162.6500 70° East 511 588 35,000  Climbing Oakland Oceanic (ODAPS)
Mon 03:13:00 PM 42.3044 -162.6837 70° East 508 585 34,000 -909 Descending FlightAware Transoceanic
Mon 03:14:00 PM 42.3527 -162.5067 70° East 508 585 34,000  Level FlightAware Transoceanic
Mon 03:15:00 PM 42.4008 -162.3294 70° East 508 585 34,000  Level FlightAware Transoceanic
Mon 03:16:00 PM 42.4485 -162.1518 70° East 508 585 34,000  Level FlightAware Transoceanic
Mon 03:17:00 PM 42.4960 -161.9739 70° East 508 585 34,000  Level FlightAware Transoceanic
Mon 03:18:00 PM 42.5432 -161.7958 70° East 508 585 34,000 500 Level FlightAware Transoceanic
Mon 03:19:00 PM 42.6170 -161.5214 71° East 511 588 35,000 500 Climbing FlightAware Transoceanic
Mon 03:20:00 PM 42.6660 -161.3323 71° East 511 588 35,000  Level FlightAware Transoceanic
Mon 03:21:00 PM 42.7146 -161.1428 71° East 511 588 35,000  Level FlightAware Transoceanic
Mon 03:22:00 PM 42.7630 -160.9531 71° East 511 588 35,000  Level FlightAware Transoceanic
Mon 03:23:00 PM 42.8110 -160.7631 71° East 511 588 35,000  Level FlightAware Transoceanic
Mon 03:24:00 PM 42.8587 -160.5727 71° East 511 588 35,000  Level FlightAware Transoceanic
Mon 03:25:00 PM 42.9061 -160.3821 71° East 511 588 35,000  Level FlightAware Transoceanic
Mon 03:26:00 PM 42.9532 -160.1912 71° East 511 588 35,000  Level FlightAware Transoceanic
Mon 03:26:47 PM 42.9500 -160.1833 69° East 496 571 35,000  Level Oakland Oceanic (ODAPS)
Mon 03:27:00 PM 43.0000 -160.0000 71° East 511 588 35,000  Level FlightAware Transoceanic
Mon 03:27:58 PM 43.0000 -160.0000 71° East 503 579 35,000  Level Oakland Oceanic (ODAPS)
Mon 03:28:00 PM 43.0456 -159.8179 71° East 511 588 35,000  Level FlightAware Transoceanic
Mon 03:29:00 PM 43.0910 -159.6354 71° East 511 588 35,000  Level FlightAware Transoceanic
Mon 03:30:00 PM 43.1360 -159.4527 71° East 511 588 35,000  Level FlightAware Transoceanic
Mon 03:31:00 PM 43.1808 -159.2698 72° East 511 588 35,000  Level FlightAware Transoceanic
Mon 03:32:00 PM 43.2253 -159.0866 72° East 511 588 35,000  Level FlightAware Transoceanic
Mon 03:33:00 PM 43.2295 -159.0689 72° East 496 571 35,000  Level FlightAware Transoceanic
Mon 03:34:00 PM 43.2694 -158.9031 72° East 503 579 35,000  Level FlightAware Transoceanic
Mon 03:35:00 PM 43.3133 -158.7193 72° East 503 579 35,000  Level FlightAware Transoceanic
Mon 03:36:00 PM 43.3569 -158.5353 72° East 503 579 35,000  Level FlightAware Transoceanic
Mon 03:37:00 PM 43.4002 -158.3510 72° East 503 579 35,000  Level FlightAware Transoceanic
Mon 03:38:00 PM 43.4432 -158.1665 72° East 503 579 35,000  Level FlightAware Transoceanic
Mon 03:39:00 PM 43.4859 -157.9816 72° East 503 579 35,000  Level FlightAware Transoceanic
Mon 03:40:00 PM 43.5283 -157.7966 73° East 503 579 35,000  Level FlightAware Transoceanic
Mon 03:40:39 PM 43.5500 -157.7000 73° East 500 575 35,000  Level Oakland Oceanic (ODAPS)
Mon 03:41:00 PM 43.5704 -157.6113 73° East 503 579 35,000  Level FlightAware Transoceanic
Mon 03:42:00 PM 43.6122 -157.4257 73° East 503 579 35,000  Level FlightAware Transoceanic
Mon 03:43:00 PM 43.6537 -157.2398 73° East 503 579 35,000  Level FlightAware Transoceanic
Mon 03:44:00 PM 43.6949 -157.0537 73° East 503 579 35,000  Level FlightAware Transoceanic
Mon 03:45:00 PM 43.7139 -156.9661 73° East 500 575 35,000  Level FlightAware Transoceanic
Mon 03:46:00 PM 43.7542 -156.7820 73° East 500 575 35,000  Level FlightAware Transoceanic
Mon 03:47:00 PM 43.7941 -156.5976 73° East 500 575 35,000  Level FlightAware Transoceanic
Mon 03:48:00 PM 43.8338 -156.4130 73° East 500 575 35,000  Level FlightAware Transoceanic
Mon 03:49:00 PM 43.8731 -156.2282 74° East 500 575 35,000  Level FlightAware Transoceanic
Mon 03:50:00 PM 43.9122 -156.0431 74° East 500 575 35,000  Level FlightAware Transoceanic
Mon 03:51:00 PM 43.9510 -155.8578 74° East 500 575 35,000  Level FlightAware Transoceanic
Mon 03:52:00 PM 43.9894 -155.6722 74° East 500 575 35,000  Level FlightAware Transoceanic
Mon 03:53:00 PM 44.0276 -155.4864 74° East 500 575 35,000  Level FlightAware Transoceanic
Mon 03:54:00 PM 44.0654 -155.3004 74° East 500 575 35,000  Level FlightAware Transoceanic
Mon 03:54:31 PM 44.1000 -155.1333 74° East 509 586 35,000  Level Oakland Oceanic (ODAPS)
Mon 03:55:00 PM 44.1030 -155.1141 74° East 500 575 35,000  Level FlightAware Transoceanic
Mon 03:56:00 PM 44.1403 -154.9276 75° East 500 575 35,000  Level FlightAware Transoceanic
Mon 03:57:00 PM 44.1772 -154.7408 75° East 500 575 35,000  Level FlightAware Transoceanic
Mon 03:58:00 PM 44.2138 -154.5538 75° East 500 575 35,000  Level FlightAware Transoceanic
Mon 03:59:00 PM 44.2502 -154.3666 75° East 500 575 35,000  Level FlightAware Transoceanic
Mon 04:00:00 PM 44.3198 -154.0066 75° East 509 586 35,000  Level FlightAware Transoceanic
Mon 04:01:00 PM 44.3553 -153.8180 75° East 509 586 35,000  Level FlightAware Transoceanic
Mon 04:02:00 PM 44.3905 -153.6291 75° East 509 586 35,000  Level FlightAware Transoceanic
Mon 04:03:00 PM 44.4255 -153.4401 76° East 509 586 35,000  Level FlightAware Transoceanic
Mon 04:04:00 PM 44.4601 -153.2508 76° East 509 586 35,000  Level FlightAware Transoceanic
Mon 04:05:00 PM 44.4944 -153.0613 76° East 509 586 35,000  Level FlightAware Transoceanic
Mon 04:06:00 PM 44.5284 -152.8715 76° East 509 586 35,000  Level FlightAware Transoceanic
Mon 04:07:00 PM 44.5620 -152.6816 76° East 509 586 35,000  Level FlightAware Transoceanic
Mon 04:08:00 PM 44.5954 -152.4914 76° East 509 586 35,000  Level FlightAware Transoceanic
Mon 04:08:23 PM 44.6000 -152.4667 76° East 522 601 35,000  Level Oakland Oceanic (ODAPS)
Mon 04:09:00 PM 44.6284 -152.3010 76° East 509 586 35,000  Level FlightAware Transoceanic
Mon 04:10:00 PM 44.6612 -152.1104 77° East 509 586 35,000  Level FlightAware Transoceanic
Mon 04:11:00 PM 44.6936 -151.9196 77° East 509 586 35,000  Level FlightAware Transoceanic
Mon 04:12:00 PM 44.7256 -151.7286 77° East 509 586 35,000  Level FlightAware Transoceanic
Mon 04:13:00 PM 44.7574 -151.5373 77° East 509 586 35,000  Level FlightAware Transoceanic
Mon 04:14:00 PM 44.7912 -151.3325 77° East 522 601 35,000  Level FlightAware Transoceanic
Mon 04:15:00 PM 44.8220 -151.1427 77° East 522 601 35,000  Level FlightAware Transoceanic
Mon 04:16:00 PM 44.8524 -150.9527 77° East 522 601 35,000  Level FlightAware Transoceanic
Mon 04:17:00 PM 44.8826 -150.7626 77° East 522 601 35,000  Level FlightAware Transoceanic
Mon 04:18:00 PM 44.9124 -150.5722 78° East 522 601 35,000  Level FlightAware Transoceanic
Mon 04:19:00 PM 44.9419 -150.3817 78° East 522 601 35,000  Level FlightAware Transoceanic
Mon 04:20:00 PM 44.9711 -150.1909 78° East 522 601 35,000  Level FlightAware Transoceanic
Mon 04:20:40 PM 45.0000 -150.0000 86° East 530 610 35,000  Level Oakland Oceanic (ODAPS)
Mon 04:21:00 PM 45.0000 -150.0000 86° East 522 601 35,000  Level FlightAware Transoceanic
Mon 04:22:00 PM 45.0089 -149.7922 87° East 522 601 35,000  Level FlightAware Transoceanic
Mon 04:22:22 PM 45.0167 -149.6667 87° East 536 617 35,000  Level Oakland Oceanic (ODAPS)
Mon 04:23:00 PM 45.0174 -149.5843 87° East 522 601 35,000  Level FlightAware Transoceanic
Mon 04:24:00 PM 45.0256 -149.3763 87° East 522 601 35,000  Level FlightAware Transoceanic
Mon 04:25:00 PM 45.0333 -149.1683 87° East 522 601 35,000  Level FlightAware Transoceanic
Mon 04:26:00 PM 45.0407 -148.9602 87° East 522 601 35,000  Level FlightAware Transoceanic
Mon 04:27:00 PM 45.0477 -148.7521 87° East 530 610 35,000  Level FlightAware Transoceanic
Mon 04:28:00 PM 45.0608 -148.4074 88° East 536 617 35,000  Level FlightAware Transoceanic
Mon 04:29:00 PM 45.0668 -148.1974 88° East 536 617 35,000  Level FlightAware Transoceanic
Mon 04:30:00 PM 45.0724 -147.9873 88° East 536 617 35,000  Level FlightAware Transoceanic
Mon 04:31:00 PM 45.0776 -147.7771 88° East 536 617 35,000  Level FlightAware Transoceanic
Mon 04:32:00 PM 45.0825 -147.5670 88° East 536 617 35,000  Level FlightAware Transoceanic
Mon 04:33:00 PM 45.0869 -147.3568 88° East 536 617 35,000  Level FlightAware Transoceanic
Mon 04:34:00 PM 45.0910 -147.1465 89° East 536 617 35,000  Level FlightAware Transoceanic
Mon 04:35:00 PM 45.0947 -146.9362 89° East 536 617 35,000  Level FlightAware Transoceanic
Mon 04:36:00 PM 45.0980 -146.7260 89° East 536 617 35,000  Level FlightAware Transoceanic
Mon 04:36:08 PM 45.1000 -146.7667 89° East 540 621 35,000  Level Oakland Oceanic (ODAPS)
Mon 04:37:00 PM 45.1009 -146.5156 89° East 536 617 35,000  Level FlightAware Transoceanic
Mon 04:38:00 PM 45.1035 -146.3053 89° East 536 617 35,000  Level FlightAware Transoceanic
Mon 04:39:00 PM 45.1056 -146.0950 89° East 536 617 35,000  Level FlightAware Transoceanic
Mon 04:40:00 PM 45.1074 -145.8846 89° East 536 617 35,000  Level FlightAware Transoceanic
Mon 04:41:00 PM 45.1087 -145.6742 90° East 536 617 35,000  Level FlightAware Transoceanic
Mon 04:42:00 PM 45.1117 -145.4969 90° East 540 621 35,000  Level FlightAware Transoceanic
Mon 04:43:00 PM 45.1123 -145.2852 90° East 540 621 35,000  Level FlightAware Transoceanic
Mon 04:44:00 PM 45.1125 -145.0735 90° East 540 621 35,000  Level FlightAware Transoceanic
Mon 04:45:00 PM 45.1123 -144.8618 90° East 540 621 35,000  Level FlightAware Transoceanic
Mon 04:46:00 PM 45.1117 -144.6502 90° East 540 621 35,000  Level FlightAware Transoceanic
Mon 04:47:00 PM 45.1107 -144.4385 90° East 540 621 35,000  Level FlightAware Transoceanic
Mon 04:48:00 PM 45.1094 -144.2269 91° East 540 621 35,000  Level FlightAware Transoceanic
Mon 04:49:00 PM 45.1076 -144.0152 91° East 540 621 35,000  Level FlightAware Transoceanic
Mon 04:50:00 PM 45.1054 -143.8036 91° East 540 621 35,000  Level FlightAware Transoceanic
Mon 04:50:00 PM 45.1000 -143.8500 91° East 545 627 35,000  Level Oakland Oceanic (ODAPS)
Mon 04:51:00 PM 45.1029 -143.5920 91° East 540 621 35,000  Level FlightAware Transoceanic
Mon 04:52:00 PM 45.1000 -143.3804 91° East 540 621 35,000  Level FlightAware Transoceanic
Mon 04:53:00 PM 45.0966 -143.1688 91° East 540 621 35,000  Level FlightAware Transoceanic
Mon 04:54:00 PM 45.0929 -142.9573 91° East 540 621 35,000  Level FlightAware Transoceanic
Mon 04:55:00 PM 45.0888 -142.7457 92° East 540 621 35,000  Level FlightAware Transoceanic
Mon 04:56:00 PM 45.0811 -142.5653 92° East 545 627 35,000  Level FlightAware Transoceanic
Mon 04:57:00 PM 45.0765 -142.3513 92° East 545 627 35,000  Level FlightAware Transoceanic
Mon 04:58:00 PM 45.0715 -142.1373 92° East 545 627 35,000  Level FlightAware Transoceanic
Mon 04:59:00 PM 45.0662 -141.9233 92° East 545 627 35,000  Level FlightAware Transoceanic
Mon 05:00:00 PM 45.0604 -141.7094 92° East 545 627 35,000  Level FlightAware Transoceanic
Mon 05:01:00 PM 45.0543 -141.4955 92° East 545 627 35,000  Level FlightAware Transoceanic
Mon 05:02:00 PM 45.0477 -141.2817 93° East 545 627 35,000  Level FlightAware Transoceanic
Mon 05:03:00 PM 45.0407 -141.0680 93° East 545 627 35,000  Level FlightAware Transoceanic
Mon 05:03:58 PM 45.0333 -140.8667 93° East 548 631 35,000  Level Oakland Oceanic (ODAPS)
Mon 05:04:00 PM 45.0334 -140.8542 93° East 545 627 35,000  Level FlightAware Transoceanic
Mon 05:05:00 PM 45.0256 -140.6406 93° East 545 627 35,000  Level FlightAware Transoceanic
Mon 05:06:00 PM 45.0175 -140.4270 93° East 545 627 35,000  Level FlightAware Transoceanic
Mon 05:07:00 PM 45.0089 -140.2135 93° East 545 627 35,000  Level FlightAware Transoceanic
Mon 05:07:56 PM 45.0000 -140.0000 109° East 545 627 35,000  Level Oakland Oceanic (ODAPS)
Mon 05:08:00 PM 45.0000 -140.0000 109° East 545 627 35,000  Level FlightAware Transoceanic
Mon 05:09:00 PM 44.9517 -139.8023 109° East 545 627 35,000  Level FlightAware Transoceanic
Mon 05:10:00 PM 44.9031 -139.6048 109° East 548 631 35,000  Level FlightAware Transoceanic
Mon 05:11:00 PM 44.8542 -139.4078 109° East 548 631 35,000  Level FlightAware Transoceanic
Mon 05:12:00 PM 44.8049 -139.2110 110° East 548 631 35,000  Level FlightAware Transoceanic
Mon 05:13:00 PM 44.7553 -139.0146 110° East 548 631 35,000  Level FlightAware Transoceanic
Mon 05:14:00 PM 44.6995 -138.7960 110° East 545 627 35,000  Level FlightAware Transoceanic
Mon 05:15:00 PM 44.6482 -138.5965 110° East 545 627 35,000  Level FlightAware Transoceanic
Mon 05:16:00 PM 44.5966 -138.3974 110° East 545 627 35,000  Level FlightAware Transoceanic
Mon 05:17:00 PM 44.5446 -138.1987 110° East 545 627 35,000  Level FlightAware Transoceanic
Mon 05:17:50 PM 44.5000 -138.0167 110° East 545 627 35,000  Level Oakland Oceanic (ODAPS)
Mon 05:18:00 PM 44.4922 -138.0003 110° East 545 627 35,000  Level FlightAware Transoceanic
Mon 05:19:00 PM 44.4395 -137.8023 111° Southeast 545 627 35,000  Level FlightAware Transoceanic
Mon 05:20:00 PM 44.3865 -137.6046 111° Southeast 545 627 35,000  Level FlightAware Transoceanic
Mon 05:21:00 PM 44.3331 -137.4073 111° Southeast 545 627 35,000  Level FlightAware Transoceanic
Mon 05:22:00 PM 44.2794 -137.2104 111° Southeast 545 627 35,000  Level FlightAware Transoceanic
Mon 05:23:00 PM 44.2254 -137.0138 111° Southeast 545 627 35,000  Level FlightAware Transoceanic
Mon 05:24:00 PM 44.1778 -136.8314 111° Southeast 545 627 35,000  Level FlightAware Transoceanic
Mon 05:25:00 PM 44.1230 -136.6351 111° Southeast 545 627 35,000  Level FlightAware Transoceanic
Mon 05:26:00 PM 44.0677 -136.4392 111° Southeast 545 627 35,000  Level FlightAware Transoceanic
Mon 05:27:00 PM 44.0122 -136.2436 112° Southeast 545 627 35,000  Level FlightAware Transoceanic
Mon 05:28:00 PM 43.9563 -136.0485 112° Southeast 545 627 35,000  Level FlightAware Transoceanic
Mon 05:29:00 PM 43.9001 -135.8537 112° Southeast 545 627 35,000  Level FlightAware Transoceanic
Mon 05:30:00 PM 43.8436 -135.6592 112° Southeast 545 627 35,000  Level FlightAware Transoceanic
Mon 05:31:00 PM 43.7867 -135.4651 112° Southeast 545 627 35,000  Level FlightAware Transoceanic
Mon 05:31:43 PM 43.7333 -135.3000 112° Southeast 540 621 35,000  Level Oakland Oceanic (ODAPS)
Mon 05:32:00 PM 43.7295 -135.2714 112° Southeast 545 627 35,000  Level FlightAware Transoceanic
Mon 05:33:00 PM 43.6720 -135.0781 112° Southeast 545 627 35,000  Level FlightAware Transoceanic
Mon 05:34:00 PM 43.6141 -134.8851 113° Southeast 545 627 35,000  Level FlightAware Transoceanic
Mon 05:35:00 PM 43.5559 -134.6926 113° Southeast 545 627 35,000  Level FlightAware Transoceanic
Mon 05:36:00 PM 43.4974 -134.5003 113° Southeast 545 627 35,000  Level FlightAware Transoceanic
Mon 05:37:00 PM 43.3950 -134.1791 113° Southeast 540 621 35,000  Level FlightAware Transoceanic
Mon 05:38:00 PM 43.3376 -133.9935 113° Southeast 540 621 35,000  Level FlightAware Transoceanic
Mon 05:39:00 PM 43.2798 -133.8082 113° Southeast 540 621 35,000  Level FlightAware Transoceanic
Mon 05:40:00 PM 43.2218 -133.6234 113° Southeast 540 621 35,000  Level FlightAware Transoceanic
Mon 05:41:00 PM 43.1634 -133.4388 114° Southeast 540 621 35,000  Level FlightAware Transoceanic
Mon 05:42:00 PM 43.1048 -133.2546 114° Southeast 540 621 35,000  Level FlightAware Transoceanic
Mon 05:43:00 PM 43.0458 -133.0708 114° Southeast 540 621 35,000  Level FlightAware Transoceanic
Mon 05:44:00 PM 42.9866 -132.8873 114° Southeast 540 621 35,000  Level FlightAware Transoceanic
Mon 05:45:00 PM 42.9271 -132.7042 114° Southeast 540 621 35,000  Level FlightAware Transoceanic
Mon 05:45:29 PM 42.9333 -132.7000 114° Southeast 533 613 35,000  Level Oakland Oceanic (ODAPS)
Mon 05:46:00 PM 42.8673 -132.5214 114° Southeast 540 621 35,000  Level FlightAware Transoceanic
Mon 05:47:00 PM 42.8072 -132.3390 114° Southeast 540 621 35,000  Level FlightAware Transoceanic
Mon 05:48:00 PM 42.7468 -132.1570 114° Southeast 540 621 35,000  Level FlightAware Transoceanic
Mon 05:49:00 PM 42.6861 -131.9753 115° Southeast 540 621 35,000  Level FlightAware Transoceanic
Mon 05:50:00 PM 42.6251 -131.7939 115° Southeast 540 621 35,000  Level FlightAware Transoceanic
Mon 05:51:00 PM 42.5676 -131.6103 115° Southeast 533 613 35,000  Level FlightAware Transoceanic
Mon 05:52:00 PM 42.5057 -131.4300 115° Southeast 533 613 35,000  Level FlightAware Transoceanic
Mon 05:53:00 PM 42.4434 -131.2500 115° Southeast 533 613 35,000  Level FlightAware Transoceanic
Mon 05:54:00 PM 42.3809 -131.0703 115° Southeast 533 613 35,000  Level FlightAware Transoceanic
Mon 05:55:00 PM 42.3181 -130.8911 115° Southeast 533 613 35,000  Level FlightAware Transoceanic
Mon 05:56:00 PM 42.2551 -130.7121 116° Southeast 533 613 35,000  Level FlightAware Transoceanic
Mon 05:57:00 PM 42.1917 -130.5336 116° Southeast 533 613 35,000  Level FlightAware Transoceanic
Mon 05:58:00 PM 42.1281 -130.3553 116° Southeast 533 613 35,000  Level FlightAware Transoceanic
Mon 05:59:00 PM 42.0642 -130.1775 116° Southeast 533 613 35,000  Level FlightAware Transoceanic
Mon 05:59:26 PM 42.0667 -130.2000 114° Southeast 526 605 35,000  Level Oakland Oceanic (ODAPS)
Mon 06:00:00 PM 42.0000 -130.0000 120° Southeast 533 613 35,000  Level FlightAware Transoceanic
Mon 06:00:32 PM 42.0000 -130.0000 120° Southeast 527 606 35,000  Level Oakland Oceanic (ODAPS)
Mon 06:01:00 PM 41.9261 -129.8300 120° Southeast 533 613 35,000  Level FlightAware Transoceanic
Mon 06:02:00 PM 41.8520 -129.6604 120° Southeast 533 613 35,000  Level FlightAware Transoceanic
Mon 06:03:00 PM 41.7777 -129.4912 121° Southeast 533 613 35,000  Level FlightAware Transoceanic
Mon 06:04:00 PM 41.7031 -129.3224 121° Southeast 533 613 35,000  Level FlightAware Transoceanic
Mon 06:05:00 PM 41.6480 -129.1983 121° Southeast 526 605 35,000  Level FlightAware Transoceanic
Mon 06:06:00 PM 41.5531 -128.9860 121° Southeast 527 606 35,000  Level FlightAware Transoceanic
Mon 06:07:00 PM 41.4778 -128.8184 121° Southeast 527 606 35,000  Level FlightAware Transoceanic
Mon 06:08:00 PM 41.4022 -128.6511 121° Southeast 527 606 35,000  Level FlightAware Transoceanic
Mon 06:09:00 PM 41.3264 -128.4843 121° Southeast 527 606 35,000  Level FlightAware Transoceanic
Mon 06:10:00 PM 41.2503 -128.3178 121° Southeast 527 606 35,000  Level FlightAware Transoceanic
Mon 06:11:00 PM 41.1740 -128.1517 121° Southeast 527 606 35,000  Level FlightAware Transoceanic
Mon 06:12:00 PM 41.0975 -127.9860 122° Southeast 527 606 35,000  Level FlightAware Transoceanic
Mon 06:13:00 PM 41.0207 -127.8207 122° Southeast 527 606 35,000  Level FlightAware Transoceanic
Mon 06:13:43 PM 41.0500 -127.8833 122° Southeast 527 606 35,000  Level Oakland Oceanic (ODAPS)
Mon 06:14:00 PM 40.9437 -127.6558 122° Southeast 527 606 35,000  Level FlightAware Transoceanic
Mon 06:15:00 PM 40.8665 -127.4913 122° Southeast 527 606 35,000  Level FlightAware Transoceanic
Mon 06:15:35 PM 40.8617 -127.4906 118° Southeast 527 606 35,000  Level Oakland Center
Mon 06:15:52 PM 40.8500 -127.4833 120° Southeast 514 592 35,000  Level Oakland Oceanic (ODAPS)
Mon 06:16:00 PM 40.7890 -127.3271 122° Southeast 527 606 35,000  Level FlightAware Transoceanic
Mon 06:16:36 PM 40.7819 -127.3308 120° Southeast 525 604 35,000  Level Oakland Center
Mon 06:17:00 PM 40.7113 -127.1634 122° Southeast 527 606 35,000  Level FlightAware Transoceanic
Mon 06:17:37 PM 40.6908 -127.1825 129° Southeast 521 600 35,000  Level Oakland Center
Mon 06:18:00 PM 40.6333 -127.0000 118° Southeast 527 606 35,000 -97 Level FlightAware Transoceanic
Mon 06:18:39 PM 40.5972 -127.0356 130° Southeast 521 600 34,900  Descending Oakland Center
Mon 06:19:00 PM 40.5670 -126.8341 118° Southeast 527 606 35,000 98 Climbing FlightAware Transoceanic
Mon 06:19:40 PM 40.5036 -126.8894 130° Southeast 522 601 35,000  Level Oakland Center
Mon 06:20:00 PM 40.5005 -126.6685 118° Southeast 527 606 35,000  Level FlightAware Transoceanic
Mon 06:20:41 PM 40.3950 -126.7136 129° Southeast 521 600 35,000  Level Oakland Center
Mon 06:21:00 PM 40.4337 -126.5033 118° Southeast 527 606 35,000  Level FlightAware Transoceanic
Mon 06:21:42 PM 40.3019 -126.5672 130° Southeast 523 602 35,000 -58 Level Oakland Center
Mon 06:22:43 PM 40.2097 -126.4231 130° Southeast 520 598 34,900 -49 Descending Oakland Center
Mon 06:23:45 PM 40.1158 -126.2775 130° Southeast 523 602 34,900 49 Level Oakland Center
Mon 06:24:46 PM 40.0236 -126.1339 130° Southeast 520 598 35,000  Climbing Oakland Center
Mon 06:25:47 PM 39.9314 -125.9906 130° Southeast 520 598 34,900 -49 Descending Oakland Center
Mon 06:26:48 PM 39.8381 -125.8481 130° Southeast 519 597 34,900 49 Level Oakland Center
Mon 06:27:49 PM 39.7450 -125.7058 130° Southeast 518 596 35,000 49 Climbing Oakland Center
Mon 06:28:50 PM 39.6533 -125.5653 130° Southeast 515 593 35,000  Level Oakland Center
Mon 06:29:52 PM 39.5419 -125.3975 131° Southeast 514 592 35,000 -49 Level Oakland Center
Mon 06:30:53 PM 39.4497 -125.2572 130° Southeast 515 593 34,900  Descending Oakland Center
Mon 06:31:54 PM 39.3633 -125.1278 131° Southeast 509 586 35,000  Climbing Oakland Center
Mon 06:32:55 PM 39.2714 -124.9906 131° Southeast 507 583 34,900 -49 Descending Oakland Center
Mon 06:33:56 PM 39.1783 -124.8525 131° Southeast 509 586 34,900 49 Level Oakland Center
Mon 06:34:57 PM 39.0825 -124.7078 130° Southeast 511 588 35,000 49 Climbing Oakland Center
Mon 06:35:59 PM 38.9914 -124.5731 131° Southeast 505 581 35,000  Level Oakland Center
Mon 06:37:00 PM 38.8989 -124.4406 132° Southeast 500 575 35,000 -49 Level Oakland Center
Mon 06:38:01 PM 38.8067 -124.3033 131° Southeast 506 582 34,900  Descending Oakland Center
Mon 06:39:02 PM 38.7008 -124.1486 131° Southeast 500 575 35,000 49 Climbing Oakland Center
Mon 06:40:03 PM 38.6089 -124.0156 131° Southeast 499 574 35,000  Level Oakland Center
Mon 06:41:04 PM 38.5167 -123.8822 131° Southeast 501 577 35,000  Level Oakland Center
Mon 06:42:06 PM 38.4258 -123.7486 131° Southeast 499 574 35,000 -49 Level Oakland Center
Mon 06:43:07 PM 38.3322 -123.6164 132° Southeast 502 578 34,900  Descending Oakland Center
Mon 06:44:08 PM 38.2400 -123.4836 131° Southeast 500 575 35,000 49 Climbing Oakland Center
Mon 06:45:09 PM 38.1472 -123.3522 132° Southeast 500 575 35,000  Level Oakland Center
Mon 06:46:10 PM 38.0539 -123.2225 132° Southeast 500 575 35,000 -49 Level Oakland Center
Mon 06:47:11 PM 37.9447 -123.0667 132° Southeast 494 568 34,900 -49 Descending Oakland Center
Mon 06:48:13 PM 37.8533 -122.9383 132° Southeast 495 570 34,900 49 Level Oakland Center
Mon 06:49:14 PM 37.7617 -122.8122 133° Southeast 496 571 35,000  Climbing Oakland Center
Mon 06:50:15 PM 37.6714 -122.6842 132° Southeast 497 572 34,900  Descending Oakland Center
Mon 06:51:16 PM 37.5794 -122.5578 133° Southeast 495 570 35,000  Climbing Oakland Center
Mon 06:52:17 PM 37.4869 -122.4289 132° Southeast 506 582 34,900  Descending Oakland Center
Mon 06:53:18 PM 37.3953 -122.3006 132° Southeast 499 574 35,000 49 Climbing Oakland Center
Mon 06:54:20 PM 37.2842 -122.1472 132° Southeast 500 575 35,000 -49 Level Oakland Center
Mon 06:55:21 PM 37.1914 -122.0200 132° Southeast 497 572 34,900  Descending Oakland Center
Mon 06:56:22 PM 37.0983 -121.8942 133° Southeast 496 571 35,000  Climbing Oakland Center
Mon 06:57:23 PM 37.0056 -121.7697 133° Southeast 490 564 34,900  Descending Oakland Center
Mon 06:58:24 PM 36.9133 -121.6444 133° Southeast 489 563 35,000 49 Climbing Oakland Center
Mon 06:59:26 PM 36.8153 -121.5119 133° Southeast 489 563 35,000 -49 Level Oakland Center
Mon 07:00:27 PM 36.7239 -121.3861 132° Southeast 489 563 34,900  Descending Oakland Center
Mon 07:01:28 PM 36.6289 -121.2628 134° Southeast 492 566 35,000  Climbing Oakland Center
Mon 07:02:29 PM 36.5364 -121.1347 132° Southeast 497 572 34,900  Descending Oakland Center
Mon 07:03:31 PM 36.4425 -121.0108 133° Southeast 494 568 35,000  Climbing Oakland Center
Mon 07:04:32 PM 36.3486 -120.8881 133° Southeast 491 565 34,900 -49 Descending Oakland Center
Mon 07:05:33 PM 36.2547 -120.7633 133° Southeast 493 567 34,900  Level Oakland Center
Mon 07:06:34 PM 36.1600 -120.6400 134° Southeast 492 566 34,900 49 Level Oakland Center
Mon 07:07:35 PM 36.0464 -120.4914 133° Southeast 495 570 35,000 49 Climbing Oakland Center
Mon 07:08:37 PM 35.9514 -120.3689 134° Southeast 486 559 35,000  Level Oakland Center
Mon 07:09:38 PM 35.8553 -120.2450 134° Southeast 494 568 35,000  Level Oakland Center
Mon 07:10:39 PM 35.7594 -120.1206 133° Southeast 495 570 35,000  Level Oakland Center
Mon 07:11:40 PM 35.6611 -119.9958 134° Southeast 499 574 35,000  Level Oakland Center
Mon 07:12:41 PM 35.5494 -119.8914 143° Southeast 500 575 35,000  Level Oakland Center
Mon 07:13:43 PM 35.4328 -119.7919 145° Southeast 504 580 35,000 -777 Level Oakland Center
Mon 07:15:00 PM 35.2983 -119.6772 145° Southeast 494 568 33,200 -1,683 Descending Los Angeles Center
Mon 07:16:02 PM 35.1903 -119.5850 145° Southeast 477 549 31,100 -2,177 Descending Los Angeles Center
Mon 07:17:04 PM 35.0653 -119.4775 145° Southeast 459 528 28,700 -2,129 Descending Los Angeles Center
Mon 07:18:06 PM 34.9625 -119.3908 145° Southeast 451 519 26,700 -1,839 Descending Los Angeles Center
Mon 07:19:08 PM 34.8633 -119.3064 145° Southeast 439 505 24,900 -1,790 Descending Los Angeles Center
Mon 07:20:10 PM 34.7681 -119.2239 145° Southeast 424 488 23,000 -1,790 Descending Los Angeles Center
Mon 07:21:12 PM 34.6739 -119.1461 146° Southeast 412 474 21,200 -1,694 Descending Los Angeles Center
Mon 07:22:14 PM 34.5819 -119.0722 147° Southeast 409 471 19,500 -1,887 Descending Los Angeles Center
Mon 07:23:16 PM 34.4764 -118.9825 145° Southeast 388 447 17,300 -1,887 Descending Los Angeles Center
Mon 07:24:18 PM 34.3892 -118.9089 145° Southeast 382 440 15,600 -1,645 Descending Los Angeles Center
Mon 07:25:20 PM 34.2944 -118.8581 156° South 368 423 13,900 -1,610 Descending Los Angeles Center
Mon 07:26:21 PM 34.1967 -118.8236 164° South 365 420 12,300 -1,317 Descending Los Angeles Center
Mon 07:27:23 PM 34.1028 -118.7889 163° South 354 407 11,200 -968 Descending Los Angeles Center
Mon 07:28:25 PM 34.0331 -118.7050 135° Southeast 321 369 10,300 -726 Descending Los Angeles Center
Mon 07:29:27 PM 34.0242 -118.6050 96° East 299 344 9,700 -1,161 Descending Los Angeles Center
Mon 07:30:29 PM 34.0153 -118.4978 96° East 297 342 7,900 -1,548 Descending Los Angeles Center
Mon 07:31:31 PM 34.0086 -118.4056 95° East 290 334 6,500 -1,258 Descending Los Angeles Center
Mon 07:32:33 PM 34.0217 -118.3067 81° East 295 339 5,300 -823 Descending Los Angeles Center
Mon 07:33:35 PM 34.0331 -118.2153 81° East 282 325 4,800 -532 Descending Los Angeles Center
Mon 07:34:37 PM 34.0131 -118.1506 110° East 243 280 4,200 -726 Descending Los Angeles Center
Mon 07:35:39 PM 33.9650 -118.1767 204° Southwest 203 234 3,300 -968 Descending Los Angeles Center
Mon 07:36:41 PM 33.9514 -118.2536 258° West 201 231 2,200 -968 Descending Los Angeles Center
Mon 07:37:43 PM 33.9450 -118.3106 262° West 188 216 1,300 -774 Descending Los Angeles Center
Mon 07:38:45 PM 33.9408 -118.3572 264° West 160 184 600 -581 Descending Los Angeles Center
Mon 07:39:47 PM 33.9572 -118.4136 289° West 159 183 100 -484 Descending Los Angeles Center
Mon 07:41:00 PM 33.9425 -118.4081 228° Southwest  Level Estimated
Mon 07:48:00 PM 33.9425 -118.4081 228° Southwest  Level Estimated

Login

Don't have an account? Register now (free) for customized features, flight alerts, and more!